Time;durP1;ratioP1;P1;durP2;ratioP2;P2;SDS_P1;SDS_P2;PMS_P1;PMS_P2;Temp;Humidity;BMP_temperature;BMP_pressure;BME280_temperature;BME280_humidity;BME280_pressure;Samples;Min_cycle;Max_cycle;Signal;HPM_P1;HPM_P2
2022/05/23 00:00:08;;;;;;;4.77;2.90;;;18.80;99.90;;;;;;4979222;28;20464;-86
2022/05/23 00:02:35;;;;;;;5.87;3.50;;;18.80;99.90;;;;;;4986548;28;20515;-86
2022/05/23 00:05:02;;;;;;;6.00;3.33;;;18.80;99.90;;;;;;4988772;28;20494;-86
2022/05/23 00:07:32;;;;;;;4.73;3.20;;;18.80;99.90;;;;;;4980808;28;20452;-87
2022/05/23 00:10:00;;;;;;;4.47;2.90;;;18.70;99.90;;;;;;4979562;28;20476;-87
2022/05/23 00:12:27;;;;;;;6.60;3.43;;;18.60;99.90;;;;;;4979206;28;20459;-87
2022/05/23 00:14:54;;;;;;;3.90;2.73;;;18.60;99.90;;;;;;4978392;28;20472;-86
2022/05/23 00:17:23;;;;;;;4.60;3.00;;;18.50;99.90;;;;;;4979135;28;20458;-87
2022/05/23 00:19:50;;;;;;;5.40;3.17;;;18.50;99.90;;;;;;4981474;28;20507;-87
2022/05/23 00:22:18;;;;;;;5.50;3.17;;;18.60;99.90;;;;;;4982412;28;20462;-87
2022/05/23 00:24:46;;;;;;;5.30;3.13;;;18.70;99.90;;;;;;4982665;28;20509;-87
2022/05/23 00:27:22;;;;;;;4.97;3.13;;;18.70;99.90;;;;;;4983023;28;20479;-87
2022/05/23 00:29:49;;;;;;;4.93;3.57;;;18.70;99.90;;;;;;4996348;28;20480;-87
2022/05/23 00:35:20;;;;;;;5.43;3.33;;;18.70;99.90;;;;;;5002968;28;20420;-85
2022/05/23 00:37:48;;;;;;;5.27;3.00;;;18.50;99.90;;;;;;4982244;28;20436;-85
2022/05/23 00:40:28;;;;;;;4.93;2.83;;;18.40;99.90;;;;;;4980297;28;20504;-85
2022/05/23 00:43:15;;;;;;;4.50;3.07;;;18.30;99.90;;;;;;4992819;28;20432;-85
2022/05/23 00:45:48;;;;;;;5.53;2.80;;;18.30;99.90;;;;;;4984220;28;20484;-85
2022/05/23 00:48:18;;;;;;;4.50;2.80;;;18.20;99.90;;;;;;4980425;28;20506;-86
2022/05/23 00:50:51;;;;;;;4.90;3.33;;;18.20;99.90;;;;;;4980190;28;20479;-86
2022/05/23 00:53:23;;;;;;;4.67;3.30;;;18.30;99.90;;;;;;4979326;28;20976;-85
2022/05/23 00:55:50;;;;;;;4.40;3.00;;;18.40;99.90;;;;;;4979826;28;20476;-85
2022/05/23 00:58:22;;;;;;;5.17;3.20;;;18.20;99.90;;;;;;4980559;28;20466;-86
2022/05/23 01:00:50;;;;;;;6.77;3.13;;;18.00;99.90;;;;;;4996681;28;20495;-85
2022/05/23 01:03:19;;;;;;;4.93;3.50;;;17.90;99.90;;;;;;5001589;28;20448;-86
2022/05/23 01:05:48;;;;;;;6.70;3.47;;;17.90;99.90;;;;;;4995989;28;20543;-85
2022/05/23 01:08:16;;;;;;;7.67;3.73;;;17.90;99.90;;;;;;4982576;28;20487;-85
2022/05/23 01:10:44;;;;;;;6.43;3.37;;;17.80;99.90;;;;;;4980694;28;20472;-86
2022/05/23 01:13:13;;;;;;;5.57;3.43;;;17.70;99.90;;;;;;4984382;28;20456;-87
2022/05/23 01:15:43;;;;;;;6.30;3.17;;;17.60;99.90;;;;;;4982960;28;20478;-87
2022/05/23 01:18:10;;;;;;;4.13;2.70;;;17.60;99.90;;;;;;4982507;28;20516;-87
2022/05/23 01:20:37;;;;;;;5.70;3.17;;;17.60;99.90;;;;;;4982286;28;20842;-87
2022/05/23 01:23:15;;;;;;;4.67;3.40;;;17.70;99.90;;;;;;4984694;28;20511;-87
2022/05/23 01:25:46;;;;;;;5.40;3.40;;;17.70;99.90;;;;;;4982813;28;20447;-87
2022/05/23 01:28:14;;;;;;;6.60;2.93;;;17.70;99.90;;;;;;4981290;28;20816;-87
2022/05/23 01:30:42;;;;;;;5.30;3.40;;;17.70;99.90;;;;;;4980492;28;20555;-87
2022/05/23 01:33:13;;;;;;;5.13;3.10;;;17.80;99.90;;;;;;4982226;28;20503;-87
2022/05/23 01:35:41;;;;;;;3.97;2.80;;;17.80;99.90;;;;;;4982721;28;20467;-87
2022/05/23 01:38:11;;;;;;;3.80;2.77;;;17.80;99.90;;;;;;4979312;28;20456;-85
2022/05/23 01:40:38;;;;;;;4.40;3.00;;;17.80;99.90;;;;;;4978602;28;20547;-85
2022/05/23 01:43:07;;;;;;;5.40;3.30;;;17.70;99.90;;;;;;4983448;28;20499;-87
2022/05/23 01:45:36;;;;;;;4.80;2.93;;;17.80;99.90;;;;;;4984357;28;20480;-87
2022/05/23 01:48:04;;;;;;;4.43;3.17;;;17.80;99.90;;;;;;4982522;28;20452;-87
2022/05/23 01:50:31;;;;;;;5.70;3.20;;;17.90;99.90;;;;;;4983725;28;20484;-86
2022/05/23 01:52:58;;;;;;;4.83;2.80;;;17.90;99.90;;;;;;4992180;28;20443;-86
2022/05/23 01:55:26;;;;;;;5.90;3.00;;;17.90;99.90;;;;;;4992841;28;20794;-85
2022/05/23 01:57:52;;;;;;;4.60;3.43;;;17.80;99.90;;;;;;4988547;28;20531;-86
2022/05/23 02:03:06;;;;;;;8.90;3.30;;;17.70;99.90;;;;;;4995963;28;20412;-83
2022/05/23 02:05:34;;;;;;;6.20;3.30;;;17.70;99.90;;;;;;5001157;28;20579;-83
2022/05/23 02:08:01;;;;;;;4.63;3.17;;;17.60;99.90;;;;;;4991900;28;20448;-86
2022/05/23 02:10:28;;;;;;;6.60;3.50;;;17.60;99.90;;;;;;4991029;28;20564;-86
2022/05/23 02:12:59;;;;;;;6.53;3.30;;;17.50;99.90;;;;;;4993367;28;20450;-87
2022/05/23 02:15:28;;;;;;;5.73;3.40;;;17.40;99.90;;;;;;5000859;28;20448;-85
2022/05/23 02:17:57;;;;;;;6.10;3.10;;;17.40;99.90;;;;;;5000403;28;20440;-84
2022/05/23 02:20:24;;;;;;;5.33;3.53;;;17.40;99.90;;;;;;5025792;23;20503;-87
2022/05/23 02:22:51;;;;;;;5.50;3.00;;;17.40;99.90;;;;;;4985780;28;20916;-87
2022/05/23 02:25:18;;;;;;;5.13;3.33;;;17.30;99.90;;;;;;4986294;28;20535;-87
2022/05/23 02:27:45;;;;;;;6.07;3.40;;;17.20;99.90;;;;;;4978869;28;20448;-88
2022/05/23 02:30:13;;;;;;;5.27;3.23;;;17.00;99.90;;;;;;4990135;28;20455;-88
2022/05/23 02:32:41;;;;;;;6.30;3.37;;;17.00;99.90;;;;;;4992600;28;20426;-88
2022/05/23 02:35:09;;;;;;;7.80;3.60;;;17.10;99.90;;;;;;4993709;28;20507;-88
2022/05/23 02:37:36;;;;;;;5.10;3.60;;;17.10;99.90;;;;;;4994335;28;20535;-88
2022/05/23 02:40:03;;;;;;;6.90;2.93;;;17.00;99.90;;;;;;4991192;28;20576;-88
2022/05/23 02:42:30;;;;;;;5.00;3.00;;;17.10;99.90;;;;;;4980707;28;20935;-88
2022/05/23 02:44:57;;;;;;;5.67;3.13;;;17.20;99.90;;;;;;4978693;28;20515;-85
2022/05/23 02:47:24;;;;;;;5.70;3.40;;;17.30;99.90;;;;;;4983017;28;20609;-87
2022/05/23 02:49:55;;;;;;;4.90;3.47;;;17.10;99.90;;;;;;4980942;28;20565;-87
2022/05/23 02:52:22;;;;;;;7.27;3.47;;;17.10;99.90;;;;;;4978470;28;20600;-87
2022/05/23 02:54:49;;;;;;;7.37;2.90;;;17.10;99.90;;;;;;4976708;28;20496;-87
2022/05/23 02:57:16;;;;;;;5.80;3.57;;;17.10;99.90;;;;;;4976595;28;20552;-87
2022/05/23 02:59:43;;;;;;;4.30;3.10;;;17.10;99.90;;;;;;4976501;28;20452;-88
2022/05/23 03:04:56;;;;;;;6.30;3.40;;;17.10;99.90;;;;;;4993683;28;20436;-87
2022/05/23 03:07:23;;;;;;;5.50;2.97;;;17.20;99.90;;;;;;4993285;28;20978;-87
2022/05/23 03:09:50;;;;;;;6.43;3.27;;;17.10;99.90;;;;;;4994191;28;20437;-89
2022/05/23 03:12:17;;;;;;;5.90;3.50;;;17.20;99.90;;;;;;4987205;28;20485;-88
2022/05/23 03:14:44;;;;;;;4.77;3.30;;;17.20;99.90;;;;;;4977427;28;20912;-87
2022/05/23 03:17:11;;;;;;;7.67;3.87;;;17.30;99.90;;;;;;4981540;28;20445;-89
2022/05/23 03:19:38;;;;;;;5.03;3.20;;;17.20;99.90;;;;;;4993708;28;20453;-89
2022/05/23 03:27:39;;;;;;;4.33;2.83;;;17.00;99.90;;;;;;4996222;28;20419;-90
2022/05/23 03:30:07;;;;;;;4.43;3.10;;;17.00;99.90;;;;;;4997178;28;20438;-92
2022/05/23 03:32:35;;;;;;;5.70;3.27;;;17.00;99.90;;;;;;4997136;28;20460;-90
2022/05/23 03:35:05;;;;;;;4.93;3.13;;;17.00;99.90;;;;;;4989565;28;20447;-89
2022/05/23 03:37:34;;;;;;;5.30;3.43;;;17.00;99.90;;;;;;4986368;28;20456;-89
2022/05/23 03:40:02;;;;;;;4.80;3.47;;;17.00;99.90;;;;;;4977030;28;20499;-89
2022/05/23 03:42:29;;;;;;;5.90;3.90;;;17.00;99.90;;;;;;4974612;28;20468;-89
2022/05/23 03:44:57;;;;;;;6.07;3.73;;;17.00;99.90;;;;;;4975060;28;20503;-89
2022/05/23 03:47:25;;;;;;;5.33;3.57;;;17.00;99.90;;;;;;4977587;28;20808;-89
2022/05/23 03:49:52;;;;;;;5.37;3.43;;;16.90;99.90;;;;;;4976228;28;20504;-88
2022/05/23 03:52:23;;;;;;;6.37;3.10;;;17.00;99.90;;;;;;4982855;28;20479;-90
2022/05/23 03:54:51;;;;;;;6.00;3.50;;;17.00;99.90;;;;;;4993760;28;20433;-90
2022/05/23 03:57:19;;;;;;;4.60;3.10;;;17.10;99.90;;;;;;4994807;28;20515;-89
2022/05/23 03:59:47;;;;;;;6.10;3.40;;;17.20;99.90;;;;;;4980426;28;20792;-89
2022/05/23 04:02:14;;;;;;;6.47;3.47;;;17.30;99.90;;;;;;4976433;28;20955;-87
2022/05/23 04:04:41;;;;;;;10.27;3.97;;;17.40;99.90;;;;;;4974401;28;20776;-87
2022/05/23 04:07:08;;;;;;;8.87;3.70;;;17.40;99.90;;;;;;4973997;28;20587;-88
2022/05/23 04:09:38;;;;;;;6.00;3.73;;;17.40;99.90;;;;;;4974535;28;20535;-88
2022/05/23 04:12:07;;;;;;;6.07;3.60;;;17.40;99.90;;;;;;4974694;28;20459;-88
2022/05/23 04:14:34;;;;;;;5.43;3.63;;;17.50;99.90;;;;;;4974899;28;20483;-88
2022/05/23 04:17:02;;;;;;;5.40;3.17;;;17.50;99.90;;;;;;4978426;28;20464;-87
2022/05/23 04:19:29;;;;;;;4.40;2.60;;;17.40;99.90;;;;;;4989012;28;20464;-88
2022/05/23 04:21:56;;;;;;;7.80;3.20;;;17.40;99.90;;;;;;4982136;28;20604;-88
2022/05/23 04:24:23;;;;;;;4.50;2.80;;;17.50;99.90;;;;;;4977657;28;20559;-88
2022/05/23 04:26:53;;;;;;;4.77;2.80;;;17.60;99.90;;;;;;4975910;28;20480;-88
2022/05/23 04:29:23;;;;;;;7.43;3.00;;;17.70;99.90;;;;;;4975154;28;20841;-89
2022/05/23 04:31:50;;;;;;;6.03;2.97;;;17.70;99.90;;;;;;4974564;28;20517;-89
2022/05/23 04:37:02;;;;;;;4.80;3.13;;;17.80;99.90;;;;;;4977254;28;20434;-89
2022/05/23 04:39:29;;;;;;;6.00;3.37;;;17.90;99.90;;;;;;4994930;28;20448;-89
2022/05/23 04:42:00;;;;;;;4.70;2.93;;;17.90;99.90;;;;;;4983364;28;20479;-89
2022/05/23 04:44:28;;;;;;;5.80;2.93;;;17.90;99.90;;;;;;4986072;28;20444;-88
2022/05/23 04:49:49;;;;;;;5.00;3.70;;;18.00;99.90;;;;;;4975532;28;20950;-89
2022/05/23 04:52:19;;;;;;;6.80;3.43;;;18.10;99.90;;;;;;4976077;28;20518;-88
2022/05/23 04:54:47;;;;;;;7.00;3.90;;;18.00;99.90;;;;;;4974548;28;20537;-89
2022/05/23 04:57:14;;;;;;;9.77;3.30;;;18.10;99.90;;;;;;4974257;28;20825;-89
2022/05/23 04:59:44;;;;;;;6.37;3.07;;;18.10;99.90;;;;;;4974150;28;20547;-89
2022/05/23 05:02:11;;;;;;;5.50;3.17;;;18.20;99.90;;;;;;4975129;28;20444;-88
2022/05/23 05:04:38;;;;;;;9.00;3.13;;;18.10;99.90;;;;;;4974729;28;20440;-88
2022/05/23 05:07:05;;;;;;;8.20;3.20;;;18.00;99.90;;;;;;4978025;28;20498;-88
2022/05/23 05:09:33;;;;;;;5.50;3.40;;;18.00;99.90;;;;;;4991418;28;20571;-88
2022/05/23 05:12:00;;;;;;;5.40;3.40;;;17.90;99.90;;;;;;4978359;28;20563;-88
2022/05/23 05:14:27;;;;;;;5.57;2.90;;;18.00;99.90;;;;;;4978033;28;20555;-88
2022/05/23 05:16:56;;;;;;;6.70;3.00;;;17.80;99.90;;;;;;4983463;28;20448;-87
2022/05/23 05:19:23;;;;;;;5.60;3.50;;;18.00;99.90;;;;;;4979023;28;20550;-87
2022/05/23 05:21:50;;;;;;;5.13;2.50;;;18.10;99.90;;;;;;4978683;28;20634;-88
2022/05/23 05:24:17;;;;;;;5.70;3.27;;;18.10;99.90;;;;;;4978691;28;20514;-88
2022/05/23 05:26:44;;;;;;;6.23;3.37;;;18.00;99.90;;;;;;4979931;28;20573;-88
2022/05/23 05:29:11;;;;;;;6.73;3.00;;;18.10;99.90;;;;;;4991853;28;20475;-88
2022/05/23 05:31:44;;;;;;;10.23;3.37;;;18.10;99.90;;;;;;4999613;28;20442;-89
2022/05/23 05:34:19;;;;;;;4.60;3.20;;;17.90;99.90;;;;;;4999005;28;20497;-88
2022/05/23 05:36:51;;;;;;;7.77;3.70;;;17.70;99.90;;;;;;4997993;28;20504;-89
2022/05/23 05:39:22;;;;;;;5.53;3.03;;;17.60;99.90;;;;;;4997424;28;20444;-86
2022/05/23 05:41:55;;;;;;;6.13;3.83;;;17.40;99.90;;;;;;4988978;28;20557;-87
2022/05/23 05:44:30;;;;;;;6.17;3.70;;;17.40;99.90;;;;;;4980991;28;20475;-88
2022/05/23 05:47:04;;;;;;;8.37;3.87;;;17.40;99.90;;;;;;4980395;28;20503;-88
2022/05/23 05:49:35;;;;;;;5.23;2.97;;;17.50;99.90;;;;;;4978295;28;20432;-88
2022/05/23 05:52:05;;;;;;;7.30;3.87;;;17.60;99.90;;;;;;4978137;28;20521;-88
2022/05/23 05:54:33;;;;;;;6.10;3.50;;;17.60;99.90;;;;;;4978953;28;20896;-88
2022/05/23 05:57:03;;;;;;;6.50;4.17;;;17.60;99.90;;;;;;4985048;28;20456;-88
2022/05/23 05:59:31;;;;;;;8.37;4.00;;;17.70;99.90;;;;;;4986171;28;20411;-88
2022/05/23 06:01:57;;;;;;;6.47;3.80;;;17.60;99.90;;;;;;4989282;28;20472;-87
2022/05/23 06:04:24;;;;;;;5.93;3.63;;;17.60;99.90;;;;;;4993028;28;20510;-88
2022/05/23 06:12:23;;;;;;;5.67;3.97;;;17.90;99.90;;;;;;4963159;28;20439;-87
2022/05/23 06:14:50;;;;;;;9.10;3.73;;;18.00;99.90;;;;;;4985767;28;20487;-87
2022/05/23 06:17:17;;;;;;;9.53;3.43;;;18.00;99.90;;;;;;4989926;28;20483;-87
2022/05/23 06:19:47;;;;;;;9.40;4.10;;;18.20;99.90;;;;;;4982147;28;20567;-88
2022/05/23 06:22:17;;;;;;;6.03;3.73;;;18.40;99.90;;;;;;4978940;28;20794;-89
2022/05/23 06:24:45;;;;;;;7.13;4.33;;;18.50;99.90;;;;;;4978202;28;20444;-88
2022/05/23 06:27:12;;;;;;;6.37;3.83;;;18.50;99.90;;;;;;4980114;28;20615;-89
2022/05/23 06:29:40;;;;;;;7.10;3.93;;;18.60;99.90;;;;;;4985951;28;20415;-89
2022/05/23 06:32:10;;;;;;;6.57;4.67;;;18.70;99.90;;;;;;4979100;28;20472;-88
2022/05/23 06:34:44;;;;;;;7.10;3.87;;;18.60;99.90;;;;;;4977431;28;20456;-88
2022/05/23 06:37:11;;;;;;;6.93;4.17;;;18.70;99.90;;;;;;4978898;28;20435;-89
2022/05/23 06:39:39;;;;;;;9.87;3.97;;;18.80;99.90;;;;;;4985641;28;20519;-89
2022/05/23 06:42:07;;;;;;;8.33;4.83;;;18.80;99.90;;;;;;4989443;28;20503;-86
2022/05/23 06:44:34;;;;;;;8.60;5.40;;;18.80;99.90;;;;;;4989963;28;20456;-86
2022/05/23 06:47:03;;;;;;;7.80;4.30;;;18.80;99.90;;;;;;4988767;28;20543;-86
2022/05/23 06:49:29;;;;;;;7.13;4.60;;;18.90;99.90;;;;;;4977662;28;20483;-88
2022/05/23 06:51:56;;;;;;;9.90;4.20;;;18.80;99.90;;;;;;4983845;28;20471;-88
2022/05/23 06:54:26;;;;;;;8.53;5.00;;;18.80;99.90;;;;;;4980380;28;20452;-87
2022/05/23 06:56:54;;;;;;;9.53;4.90;;;18.50;99.90;;;;;;4982553;28;20452;-87
2022/05/23 06:59:21;;;;;;;7.13;5.07;;;18.40;99.90;;;;;;4980712;28;20510;-88
2022/05/23 07:01:48;;;;;;;6.73;4.77;;;18.40;99.90;;;;;;4979008;28;20494;-88
2022/05/23 07:04:18;;;;;;;7.27;4.63;;;18.40;99.90;;;;;;4981152;28;20463;-87
2022/05/23 07:12:28;;;;;;;6.33;3.73;;;18.90;99.90;;;;;;4936280;29;20513;-88
2022/05/23 07:14:57;;;;;;;8.40;4.47;;;19.10;99.90;;;;;;4969849;28;20437;-88
2022/05/23 07:17:34;;;;;;;6.67;4.30;;;19.10;99.90;;;;;;4979513;28;20452;-88
2022/05/23 07:20:09;;;;;;;7.27;4.17;;;19.20;99.90;;;;;;4977450;28;20506;-88
2022/05/23 07:22:36;;;;;;;7.27;3.70;;;19.20;99.90;;;;;;4977454;28;20791;-88
2022/05/23 07:25:03;;;;;;;6.20;4.03;;;19.40;99.90;;;;;;4977326;28;20456;-89
2022/05/23 07:27:32;;;;;;;6.33;3.93;;;19.50;99.90;;;;;;4976978;28;20500;-89
2022/05/23 07:29:59;;;;;;;7.30;3.73;;;19.40;99.90;;;;;;4983767;28;20455;-91
2022/05/23 07:32:29;;;;;;;6.00;3.57;;;19.60;99.90;;;;;;4997130;28;20433;-90
2022/05/23 07:34:57;;;;;;;11.00;4.67;;;19.80;99.90;;;;;;4997139;28;20444;-89
2022/05/23 07:37:27;;;;;;;5.60;3.80;;;19.80;99.90;;;;;;4986598;28;20511;-88
2022/05/23 07:39:56;;;;;;;5.67;3.53;;;19.90;99.90;;;;;;4979475;28;20977;-88
2022/05/23 07:42:26;;;;;;;6.53;3.70;;;20.10;99.90;;;;;;4981415;28;20535;-88
2022/05/23 07:44:54;;;;;;;5.27;3.30;;;20.10;99.90;;;;;;4980456;28;20507;-87
2022/05/23 07:47:21;;;;;;;6.50;3.90;;;20.40;99.90;;;;;;4981114;28;20487;-89
2022/05/23 07:49:50;;;;;;;7.03;3.20;;;20.30;99.90;;;;;;4982412;28;20495;-89
2022/05/23 07:52:30;;;;;;;7.60;4.37;;;20.10;99.90;;;;;;4985618;28;20457;-88
2022/05/23 08:00:34;;;;;;;4.73;3.40;;;19.90;99.90;;;;;;4996525;28;20455;-88
2022/05/23 08:03:16;;;;;;;6.27;3.60;;;20.00;99.90;;;;;;4992719;28;20540;-87
2022/05/23 08:05:44;;;;;;;7.33;4.17;;;20.10;99.90;;;;;;4984599;28;20452;-87
2022/05/23 08:08:11;;;;;;;5.63;3.77;;;20.30;99.90;;;;;;4979717;28;20479;-87
2022/05/23 08:10:39;;;;;;;10.60;4.70;;;20.50;99.90;;;;;;4978323;28;20461;-88
2022/05/23 08:13:09;;;;;;;5.90;3.67;;;20.70;99.90;;;;;;4981388;28;20452;-88
2022/05/23 08:15:41;;;;;;;6.47;3.90;;;20.80;99.90;;;;;;4978308;28;20516;-86
2022/05/23 08:18:13;;;;;;;7.43;3.97;;;21.10;99.90;;;;;;4977596;28;20443;-87
2022/05/23 08:20:41;;;;;;;4.10;3.20;;;21.10;99.90;;;;;;4976290;28;20480;-86
2022/05/23 08:23:07;;;;;;;6.00;3.93;;;20.90;99.90;;;;;;5024868;23;20503;-88
2022/05/23 08:25:39;;;;;;;7.50;3.93;;;20.90;99.90;;;;;;4988887;28;20483;-87
2022/05/23 08:28:19;;;;;;;6.80;3.80;;;20.90;99.90;;;;;;4984313;28;20507;-87
2022/05/23 08:30:48;;;;;;;6.80;4.63;;;20.80;99.90;;;;;;4982017;28;20451;-86
2022/05/23 08:36:36;;;;;;;;;;;;;;;;;;;;;
2022/05/23 08:42:08;;;;;;;6.23;4.83;;;20.70;99.90;;;;;;4992117;28;20448;-87
2022/05/23 08:44:50;;;;;;;9.13;5.00;;;20.70;99.90;;;;;;4999573;28;20504;-87
2022/05/23 08:47:38;;;;;;;8.07;4.67;;;20.80;99.90;;;;;;4998393;28;20472;-87
2022/05/23 08:50:19;;;;;;;6.27;4.43;;;20.90;99.90;;;;;;4986518;28;20452;-87
2022/05/23 08:53:09;;;;;;;9.57;5.07;;;20.90;99.90;;;;;;4984106;28;20476;-86
2022/05/23 08:55:41;;;;;;;12.33;4.20;;;21.00;99.90;;;;;;4983549;28;20421;-87
2022/05/23 08:58:14;;;;;;;9.30;4.50;;;21.10;99.90;;;;;;4986994;28;20445;-87
2022/05/23 09:00:55;;;;;;;7.50;4.73;;;21.10;99.90;;;;;;4986138;28;20474;-86
2022/05/23 09:03:30;;;;;;;6.33;4.27;;;21.00;99.90;;;;;;4989069;28;20806;-87
2022/05/23 09:06:08;;;;;;;9.77;4.17;;;20.90;99.90;;;;;;4989504;28;20431;-87
2022/05/23 09:08:47;;;;;;;7.13;4.70;;;21.00;99.90;;;;;;4987530;28;20490;-87
2022/05/23 09:11:26;;;;;;;10.90;4.20;;;21.00;99.90;;;;;;4987212;28;20919;-88
2022/05/23 09:13:55;;;;;;;7.60;5.50;;;21.10;99.90;;;;;;4986988;28;20487;-86
2022/05/23 09:16:25;;;;;;;6.00;4.30;;;21.40;99.90;;;;;;4988599;28;20483;-87
2022/05/23 09:18:59;;;;;;;7.83;4.30;;;21.50;99.90;;;;;;4992229;28;20432;-87
2022/05/23 09:22:12;;;;;;;7.80;4.50;;;21.70;99.90;;;;;;5000508;28;20440;-85
2022/05/23 09:24:16;;;;;;;7.43;4.10;;;21.80;99.90;;;;;;5000593;28;20478;-87
2022/05/23 09:26:45;;;;;;;9.13;4.33;;;21.90;99.90;;;;;;4990598;28;20889;-87
2022/05/23 09:29:13;;;;;;;6.57;4.70;;;21.90;99.90;;;;;;4992294;28;20503;-86
2022/05/23 09:31:49;;;;;;;7.43;4.93;;;21.80;99.90;;;;;;4997991;28;20448;-87
2022/05/23 09:34:33;;;;;;;7.00;5.00;;;21.90;99.90;;;;;;4999554;28;20464;-86
2022/05/23 09:37:07;;;;;;;10.63;5.60;;;21.90;99.90;;;;;;4989464;28;20520;-86
2022/05/23 09:39:36;;;;;;;7.20;3.90;;;22.00;99.90;;;;;;4984735;28;20468;-86
2022/05/23 09:47:57;;;;;;;5.53;3.60;;;22.50;99.90;;;;;;4982246;28;20463;-87
2022/05/23 09:50:40;;;;;;;5.67;4.27;;;22.60;99.90;;;;;;4987779;28;20523;-87
2022/05/23 09:53:27;;;;;;;5.67;4.10;;;22.80;99.90;;;;;;4996683;28;20491;-87
2022/05/23 09:55:54;;;;;;;5.63;4.10;;;22.90;99.90;;;;;;4991314;28;20454;-87
2022/05/23 09:58:31;;;;;;;8.50;4.07;;;23.00;99.90;;;;;;4983422;28;20479;-86
2022/05/23 10:01:08;;;;;;;8.40;4.40;;;23.10;99.90;;;;;;4983199;28;20436;-86
2022/05/23 10:03:49;;;;;;;6.17;4.00;;;23.00;99.90;;;;;;4980577;28;20919;-87
2022/05/23 10:06:20;;;;;;;6.80;3.90;;;23.10;99.90;;;;;;4980662;28;20465;-86
2022/05/23 10:08:48;;;;;;;7.27;4.90;;;23.20;99.90;;;;;;4981009;28;20515;-87
2022/05/23 10:11:23;;;;;;;6.30;4.40;;;23.30;99.90;;;;;;4984258;28;20515;-86
2022/05/23 10:13:55;;;;;;;6.00;4.10;;;23.40;99.90;;;;;;4984258;28;20990;-87
2022/05/23 10:16:27;;;;;;;6.10;4.40;;;23.60;99.90;;;;;;4984387;28;20518;-86
2022/05/23 10:19:00;;;;;;;5.87;4.40;;;23.50;99.90;;;;;;4986579;28;20511;-86
2022/05/23 10:21:31;;;;;;;8.53;4.37;;;23.50;99.90;;;;;;4983500;28;20556;-87
2022/05/23 10:24:01;;;;;;;6.90;4.67;;;23.20;99.90;;;;;;4988310;28;20492;-87
2022/05/23 10:26:30;;;;;;;6.40;4.67;;;23.10;99.90;;;;;;4985707;28;20451;-87
2022/05/23 10:29:02;;;;;;;8.60;5.77;;;23.20;99.90;;;;;;4985759;28;20539;-87
2022/05/23 10:31:36;;;;;;;7.40;5.20;;;23.20;99.90;;;;;;4984573;28;20535;-87
2022/05/23 10:34:12;;;;;;;8.23;5.43;;;23.20;99.90;;;;;;4986596;28;20494;-86
2022/05/23 10:36:43;;;;;;;5.83;4.40;;;23.30;99.90;;;;;;4986475;28;20831;-87
2022/05/23 10:42:09;;;;;;;8.00;4.40;;;23.40;99.90;;;;;;4988286;28;20416;-88
2022/05/23 10:44:48;;;;;;;7.03;4.73;;;23.50;99.90;;;;;;4992333;28;20472;-89
2022/05/23 10:47:31;;;;;;;7.30;4.60;;;23.60;99.90;;;;;;4994293;28;20519;-87
2022/05/23 10:50:09;;;;;;;7.50;4.77;;;23.60;99.90;;;;;;4985610;28;20445;-87
2022/05/23 10:52:44;;;;;;;7.60;4.53;;;23.80;99.90;;;;;;4983148;28;20547;-86
2022/05/23 10:55:17;;;;;;;9.07;4.93;;;23.90;99.90;;;;;;4985036;28;20483;-88
2022/05/23 10:58:01;;;;;;;9.07;5.07;;;23.70;99.90;;;;;;4994548;28;20429;-84
2022/05/23 11:00:35;;;;;;;8.40;4.73;;;23.70;99.90;;;;;;4998889;28;20425;-86
2022/05/23 11:03:13;;;;;;;11.67;5.23;;;23.70;99.90;;;;;;4985092;28;20543;-87
2022/05/23 11:05:45;;;;;;;9.10;4.90;;;23.70;99.90;;;;;;4982712;28;20846;-86
2022/05/23 11:08:44;;;;;;;6.93;4.57;;;23.50;99.90;;;;;;4983505;28;20468;-87
2022/05/23 11:11:17;;;;;;;8.33;5.07;;;23.40;99.90;;;;;;4981209;28;20460;-86
2022/05/23 11:14:09;;;;;;;9.47;6.80;;;23.20;99.90;;;;;;4981783;28;20511;-88
2022/05/23 11:16:43;;;;;;;8.13;4.80;;;23.00;99.90;;;;;;4982282;28;20481;-87
2022/05/23 11:19:25;;;;;;;9.57;5.57;;;22.90;99.90;;;;;;4983209;28;20460;-88
2022/05/23 11:22:01;;;;;;;15.53;5.93;;;22.80;99.90;;;;;;4982632;28;20452;-87
2022/05/23 11:24:45;;;;;;;7.07;5.13;;;22.50;99.90;;;;;;4984050;28;20490;-87
2022/05/23 11:35:56;;;;;;;8.97;5.90;;;21.50;99.90;;;;;;4984980;28;20416;-86
2022/05/23 11:38:23;;;;;;;10.23;6.50;;;21.20;99.90;;;;;;4985601;28;20456;-85
2022/05/23 11:41:04;;;;;;;12.50;6.90;;;21.00;99.90;;;;;;4984847;28;20642;-87
2022/05/23 11:43:31;;;;;;;9.17;6.30;;;21.00;99.90;;;;;;4998114;28;20480;-86
2022/05/23 11:46:09;;;;;;;13.60;7.10;;;20.90;99.90;;;;;;4996437;28;20452;-87
2022/05/23 11:48:45;;;;;;;11.97;6.47;;;20.90;99.90;;;;;;4987442;28;20523;-84
2022/05/23 11:51:30;;;;;;;13.27;7.50;;;20.80;99.90;;;;;;4998130;28;20436;-85
2022/05/23 11:54:06;;;;;;;15.27;6.07;;;20.60;99.90;;;;;;4995893;28;20456;-86
2022/05/23 11:56:47;;;;;;;21.63;7.73;;;20.50;99.90;;;;;;4990404;28;20470;-87
2022/05/23 11:59:52;;;;;;;13.00;5.17;;;20.50;99.90;;;;;;4989665;28;20490;-87
2022/05/23 12:02:25;;;;;;;7.53;3.63;;;20.40;99.90;;;;;;4982459;28;20520;-86
2022/05/23 12:05:29;;;;;;;7.13;3.33;;;20.30;99.90;;;;;;4981868;28;20855;-87
2022/05/23 12:08:01;;;;;;;19.40;4.70;;;20.30;99.90;;;;;;4981204;28;20510;-87
2022/05/23 12:10:46;;;;;;;13.63;4.57;;;20.20;99.90;;;;;;4981110;28;20504;-87
2022/05/23 12:14:14;;;;;;;7.40;3.83;;;20.00;99.90;;;;;;4982929;28;20478;-87
2022/05/23 12:17:14;;;;;;;15.70;4.90;;;19.90;99.90;;;;;;4987331;28;20670;-86
2022/05/23 12:19:59;;;;;;;10.07;3.93;;;19.90;99.90;;;;;;4977391;28;20551;-87
2022/05/23 12:25:35;;;;;;;7.57;3.93;;;19.40;99.90;;;;;;5002374;28;20494;-85
2022/05/23 12:28:21;;;;;;;7.43;2.90;;;19.20;99.90;;;;;;5001333;28;20472;-89
2022/05/23 12:31:18;;;;;;;11.23;4.17;;;19.20;99.90;;;;;;4987691;28;20523;-88
2022/05/23 12:36:53;;;;;;;10.27;4.40;;;19.20;99.90;;;;;;4985123;28;20477;-88
2022/05/23 12:43:23;;;;;;;9.03;3.53;;;19.30;99.90;;;;;;4984373;28;20472;-88
2022/05/23 12:49:40;;;;;;;6.70;3.63;;;19.70;99.90;;;;;;4974203;28;20483;-89
2022/05/23 12:52:21;;;;;;;8.57;3.53;;;19.80;99.90;;;;;;4987997;28;20459;-88
2022/05/23 12:55:35;;;;;;;8.33;3.63;;;20.10;99.90;;;;;;4985107;28;20444;-88
2022/05/23 12:58:52;;;;;;;8.03;3.50;;;20.20;99.90;;;;;;4999919;28;20432;-88
2022/05/23 13:02:11;;;;;;;11.00;4.03;;;20.40;99.90;;;;;;4992413;28;20459;-89
2022/05/23 13:05:01;;;;;;;10.00;4.20;;;20.60;99.90;;;;;;4980803;28;20480;-89
2022/05/23 13:07:44;;;;;;;8.73;3.80;;;20.80;99.90;;;;;;4984502;28;20771;-88
2022/05/23 13:10:27;;;;;;;11.03;5.00;;;21.10;99.90;;;;;;4984950;28;20475;-88
2022/05/23 13:16:26;;;;;;;9.50;3.70;;;21.50;99.90;;;;;;4985911;28;20857;-89
2022/05/23 13:22:23;;;;;;;;;;;;;;;;;;;;;
2022/05/23 13:24:56;;;;;;;8.07;3.70;;;21.90;99.90;;;;;;4984629;28;20440;-87
2022/05/23 13:27:29;;;;;;;5.60;2.90;;;22.10;99.90;;;;;;4990163;28;20440;-86
2022/05/23 13:30:09;;;;;;;7.73;3.13;;;22.30;99.90;;;;;;4995077;28;20560;-87
2022/05/23 13:36:24;;;;;;;7.00;4.07;;;22.60;99.90;;;;;;4982439;28;20531;-88
2022/05/23 13:59:50;;;;;;;7.70;4.00;;;23.40;99.90;;;;;;4769365;29;20468;-87
2022/05/23 14:25:34;;;;;;;6.70;3.33;;;24.90;99.90;;;;;;4996761;23;20499;-88
2022/05/23 14:28:15;;;;;;;9.53;3.30;;;25.20;99.90;;;;;;4981233;28;20495;-88
2022/05/23 14:30:47;;;;;;;7.43;3.40;;;25.50;99.90;;;;;;4980496;28;20519;-87
2022/05/23 14:33:21;;;;;;;9.97;4.53;;;25.80;99.90;;;;;;4980184;28;20515;-87
2022/05/23 14:35:54;;;;;;;6.60;3.53;;;26.10;99.90;;;;;;4981373;28;20437;-87
2022/05/23 14:38:32;;;;;;;7.40;3.67;;;26.40;99.90;;;;;;4986529;28;20468;-87
2022/05/23 14:41:13;;;;;;;8.47;3.80;;;26.50;99.90;;;;;;4993605;28;20479;-87
2022/05/23 14:43:40;;;;;;;6.73;3.70;;;26.70;99.90;;;;;;4991960;28;20542;-87
2022/05/23 14:46:18;;;;;;;9.27;3.17;;;26.70;99.90;;;;;;4983169;28;20488;-87
2022/05/23 14:48:53;;;;;;;10.10;3.57;;;26.50;99.90;;;;;;4981157;28;20567;-87
2022/05/23 14:51:27;;;;;;;9.40;3.40;;;26.40;99.90;;;;;;4980814;28;20429;-88
2022/05/23 14:56:52;;;;;;;10.03;3.50;;;26.10;99.90;;;;;;4982986;28;20494;-88
2022/05/23 15:02:28;;;;;;;7.60;3.57;;;25.60;99.90;;;;;;4986117;28;20485;-87
2022/05/23 15:04:55;;;;;;;11.10;3.97;;;25.60;99.90;;;;;;4981588;28;20511;-87
2022/05/23 15:07:23;;;;;;;8.10;3.80;;;25.40;99.90;;;;;;4980950;28;20542;-87
2022/05/23 15:09:50;;;;;;;8.83;3.83;;;25.40;99.90;;;;;;4980872;28;20492;-87
2022/05/23 15:12:24;;;;;;;7.23;3.70;;;25.30;99.90;;;;;;4992657;28;20532;-88
2022/05/23 15:14:55;;;;;;;7.27;3.70;;;25.30;99.90;;;;;;4983920;28;20471;-88
2022/05/23 15:17:28;;;;;;;7.83;4.23;;;25.20;99.90;;;;;;4979777;28;20436;-87
2022/05/23 15:19:55;;;;;;;9.27;4.00;;;25.20;99.90;;;;;;4980260;28;20904;-87
2022/05/23 15:22:27;;;;;;;9.67;3.17;;;25.10;99.90;;;;;;4980583;28;20562;-87
2022/05/23 15:24:55;;;;;;;9.80;4.63;;;25.10;99.90;;;;;;4980199;28;20531;-88
2022/05/23 15:27:26;;;;;;;8.40;4.40;;;25.10;99.90;;;;;;4984944;28;20461;-87